Karlovy Vary, Czech Republic

3:29 PM CEST on July 26, 2016 (GMT +0200)
Karlovy Vary | | Change Station

Elev 1988 ft 50.20 °N, 12.91 °E | Updated 11 minutes ago

Light Rain
Light Rain
68 °F
Feels Like 68 °F
N
1
Wind Variable Wind from Variable

Today
High -- | Low -- °F
--% Chance of Precip.
Yesterday
High -- | Low -- °F
Precip. -- in
Pressure 30.15 in
Visibility 6.2 miles
Clouds
Dew Point 63 °F
Humidity 83%
Rainfall 0.00 in
Snow Depth Not available.
5:29 AM 8:59 PM
Waning Gibbous, 54% visible
SPECI LKKV 261318Z VRB01KT 9999 -RA NSC 20/17 Q1021 RMK REG QNH 1014
Pressure 30.15 in
Visibility 6.2 miles
Clouds
Dew Point 63 °F
Humidity 83%
Rainfall 0.00 in
Snow Depth Not available.
5:29 AM 8:59 PM
Waning Gibbous, 54% visible
SPECI LKKV 261318Z VRB01KT 9999 -RA NSC 20/17 Q1021 RMK REG QNH 1014

10-Day Weather Forecast

×

Almanac

Astronomy

Jul. 26, 2016 Rise Set
Actual Time
Civil Twilight
Nautical Twilight
Astronomical Twilight
Moon
Length of Visible Light
Length of Day
Tomorrow will be .
, % of the Moon is Illuminated

Today's Extremes

Country Highs Country Lows

Community

WunderPhotos

Upload Photos

1,927,582 photos uploaded!

WunderBlog® & News

Nearby

Air Quality

  Air Quality AQ Index Pollutant
Not available.

Snow Depth

Station Depth Elevation

Earthquake Activity

City Distance Mag. Time & Date
Minimum magnitude displayed is 2.5.

Coastal Water Temperatures

Place Temperature

Stations

Nearby Weather Stations

Station Location Temp. Windchill Dew Point Humidity Wind Precip. Elev Updated Type